createdAt,value
2018-06-21T00:00:36.541Z,19.31
2018-06-21T00:01:36.512Z,19.33
2018-06-21T00:02:36.480Z,19.31
2018-06-21T00:03:36.455Z,19.47
2018-06-21T00:04:36.419Z,19.44
2018-06-21T00:05:36.391Z,19.34
2018-06-21T00:06:36.378Z,19.34
2018-06-21T00:07:36.324Z,19.33
2018-06-21T00:08:36.294Z,19.58
2018-06-21T00:09:36.289Z,19.52
2018-06-21T00:10:36.230Z,19.62
2018-06-21T00:11:36.197Z,19.63
2018-06-21T00:12:36.220Z,19.63
2018-06-21T00:13:36.156Z,19.63
2018-06-21T00:14:36.129Z,19.74
2018-06-21T00:15:36.067Z,19.79
2018-06-21T00:16:36.039Z,19.82
2018-06-21T00:17:36.008Z,19.82
2018-06-21T00:18:36.064Z,19.81
2018-06-21T00:19:35.952Z,19.77
2018-06-21T00:20:35.937Z,19.76
2018-06-21T00:21:35.906Z,19.73
2018-06-21T00:22:35.870Z,19.84
2018-06-21T00:23:35.819Z,19.81
2018-06-21T00:24:35.787Z,19.77
2018-06-21T00:25:35.756Z,19.82
2018-06-21T00:26:35.724Z,19.79
2018-06-21T00:27:35.688Z,19.79
2018-06-21T00:28:35.665Z,19.82
2018-06-21T00:29:35.646Z,19.84
2018-06-21T00:30:35.599Z,19.77
2018-06-21T00:31:35.577Z,19.71
2018-06-21T00:32:35.535Z,19.73
2018-06-21T00:33:35.507Z,19.58
2018-06-21T00:34:35.477Z,19.63
2018-06-21T00:35:35.438Z,19.63
2018-06-21T00:36:35.408Z,19.70
2018-06-21T00:37:35.379Z,19.56
2018-06-21T00:38:35.349Z,19.58
2018-06-21T00:39:35.318Z,19.63
2018-06-21T00:40:35.320Z,19.55
2018-06-21T00:41:35.254Z,19.51
2018-06-21T00:42:35.224Z,19.51
2018-06-21T00:43:35.194Z,19.49
2018-06-21T00:44:35.161Z,19.41
2018-06-21T00:45:35.123Z,19.44
2018-06-21T00:46:35.095Z,19.33
2018-06-21T00:47:35.070Z,19.36
2018-06-21T00:48:35.040Z,19.27
2018-06-21T00:49:34.999Z,19.31
2018-06-21T00:50:34.975Z,19.24
2018-06-21T00:51:34.938Z,19.21
2018-06-21T00:52:34.907Z,19.19
2018-06-21T00:53:34.875Z,19.09
2018-06-21T00:54:34.845Z,19.04
2018-06-21T00:55:34.818Z,19.02
2018-06-21T00:56:34.782Z,18.92
2018-06-21T00:57:34.750Z,19.00
2018-06-21T00:58:34.717Z,18.92
2018-06-21T00:59:34.687Z,18.92
2018-06-21T01:00:34.694Z,18.96
2018-06-21T01:01:34.625Z,18.90
2018-06-21T01:02:34.591Z,18.90
2018-06-21T01:03:34.563Z,18.90
2018-06-21T01:04:34.530Z,18.77
2018-06-21T01:05:34.497Z,18.81
2018-06-21T01:06:34.466Z,18.77
2018-06-21T01:07:34.449Z,18.75
2018-06-21T01:08:34.402Z,18.73
2018-06-21T01:09:34.372Z,18.71
2018-06-21T01:10:34.339Z,18.59
2018-06-21T01:11:34.312Z,18.60
2018-06-21T01:12:34.276Z,18.56
2018-06-21T01:13:34.244Z,18.49
2018-06-21T01:14:34.208Z,18.53
2018-06-21T01:15:34.185Z,18.49
2018-06-21T01:16:34.151Z,18.53
2018-06-21T01:17:34.112Z,18.49
2018-06-21T01:18:34.088Z,18.49
2018-06-21T01:19:34.057Z,18.41
2018-06-21T01:20:34.021Z,18.37
2018-06-21T01:21:34.014Z,18.41
2018-06-21T01:22:33.960Z,18.40
2018-06-21T01:23:33.945Z,18.35
2018-06-21T01:24:33.897Z,18.40
2018-06-21T01:25:33.864Z,18.33
2018-06-21T01:26:33.834Z,18.23
2018-06-21T01:27:33.800Z,18.20
2018-06-21T01:28:33.788Z,18.23
2018-06-21T01:29:33.737Z,18.19
2018-06-21T01:30:33.707Z,18.22
2018-06-21T01:31:33.673Z,18.19
2018-06-21T01:32:33.655Z,18.20
2018-06-21T01:33:33.608Z,18.15
2018-06-21T01:34:33.579Z,18.15
2018-06-21T01:35:33.547Z,18.15
2018-06-21T01:36:33.511Z,18.05
2018-06-21T01:37:33.486Z,18.07
2018-06-21T01:38:33.455Z,18.04
2018-06-21T01:39:33.417Z,18.00
2018-06-21T01:40:33.386Z,18.05
2018-06-21T01:41:33.355Z,18.04
2018-06-21T01:42:33.323Z,18.01
2018-06-21T01:43:33.301Z,17.95
2018-06-21T01:44:33.284Z,17.90
2018-06-21T01:45:33.226Z,17.86
2018-06-21T01:46:33.199Z,17.85
2018-06-21T01:47:33.177Z,17.85
2018-06-21T01:48:33.131Z,17.78
2018-06-21T01:49:33.104Z,17.74
2018-06-21T01:50:33.063Z,17.72
2018-06-21T01:51:33.036Z,17.70
2018-06-21T01:52:33.031Z,17.70
2018-06-21T01:53:32.987Z,17.67
2018-06-21T01:54:32.937Z,17.60
2018-06-21T01:55:32.908Z,17.56
2018-06-21T01:56:32.876Z,17.54
2018-06-21T01:57:32.846Z,17.54
2018-06-21T01:58:32.812Z,17.51
2018-06-21T01:59:32.788Z,17.46
2018-06-21T02:00:32.749Z,17.46
2018-06-21T02:01:32.718Z,17.44
2018-06-21T02:02:32.681Z,17.41
2018-06-21T02:03:32.653Z,17.39
2018-06-21T02:04:32.623Z,17.48
2018-06-21T02:05:32.589Z,17.54
2018-06-21T02:06:32.564Z,17.49
2018-06-21T02:07:32.549Z,17.64
2018-06-21T02:08:32.488Z,17.82
2018-06-21T02:09:32.460Z,17.85
2018-06-21T02:10:32.429Z,17.80
2018-06-21T02:11:32.408Z,17.74
2018-06-21T02:12:32.367Z,17.49
2018-06-21T02:13:32.333Z,17.56
2018-06-21T02:14:32.331Z,17.34
2018-06-21T02:15:32.275Z,17.29
2018-06-21T02:16:33.064Z,17.27
2018-06-21T02:17:32.203Z,17.24
2018-06-21T02:18:33.062Z,17.12
2018-06-21T02:19:32.151Z,17.15
2018-06-21T02:20:32.105Z,17.06
2018-06-21T02:21:32.071Z,17.11
2018-06-21T02:22:32.047Z,17.08
2018-06-21T02:23:32.010Z,17.09
2018-06-21T02:24:31.991Z,17.14
2018-06-21T02:25:31.942Z,16.96
2018-06-21T02:26:31.914Z,17.08
2018-06-21T02:27:31.906Z,17.11
2018-06-21T02:28:31.854Z,16.93
2018-06-21T02:29:31.830Z,16.94
2018-06-21T02:30:31.788Z,16.83
2018-06-21T02:31:31.750Z,16.79
2018-06-21T02:32:31.737Z,16.76
2018-06-21T02:33:31.688Z,16.74
2018-06-21T02:34:31.669Z,16.75
2018-06-21T02:35:31.624Z,16.66
2018-06-21T02:36:31.593Z,16.57
2018-06-21T02:37:31.563Z,16.68
2018-06-21T02:38:31.525Z,16.64
2018-06-21T02:39:31.497Z,16.64
2018-06-21T02:40:31.469Z,16.60
2018-06-21T02:41:31.434Z,16.57
2018-06-21T02:42:31.400Z,16.54
2018-06-21T02:43:31.403Z,16.50
2018-06-21T02:44:31.332Z,16.43
2018-06-21T02:45:31.301Z,16.39
2018-06-21T02:46:31.283Z,16.41
2018-06-21T02:47:31.236Z,16.38
2018-06-21T02:48:31.208Z,16.33
2018-06-21T02:49:31.173Z,16.31
2018-06-21T02:50:31.143Z,16.38
2018-06-21T02:51:31.115Z,16.43
2018-06-21T02:52:31.078Z,16.46
2018-06-21T02:53:31.077Z,16.38
2018-06-21T02:54:31.007Z,16.56
2018-06-21T02:55:30.999Z,16.68
2018-06-21T02:56:30.950Z,16.81
2018-06-21T02:57:30.914Z,16.91
2018-06-21T02:58:30.881Z,17.08
2018-06-21T02:59:30.849Z,17.14
2018-06-21T03:00:30.831Z,17.27
2018-06-21T03:01:30.791Z,17.29
2018-06-21T03:02:30.752Z,17.22
2018-06-21T03:03:30.743Z,17.44
2018-06-21T03:04:30.699Z,17.49
2018-06-21T03:05:30.655Z,17.31
2018-06-21T03:06:30.627Z,17.44
2018-06-21T03:07:30.591Z,17.49
2018-06-21T03:08:30.560Z,17.52
2018-06-21T03:09:30.526Z,17.63
2018-06-21T03:10:30.513Z,17.57
2018-06-21T03:11:30.479Z,17.72
2018-06-21T03:12:30.461Z,17.85
2018-06-21T03:13:30.397Z,17.83
2018-06-21T03:14:30.364Z,17.85
2018-06-21T03:15:30.334Z,18.03
2018-06-21T03:16:30.297Z,18.05
2018-06-21T03:17:30.278Z,18.11
2018-06-21T03:18:30.234Z,18.04
2018-06-21T03:19:30.201Z,18.05
2018-06-21T03:20:30.179Z,17.90
2018-06-21T03:21:30.179Z,17.87
2018-06-21T03:22:30.103Z,17.74
2018-06-21T03:23:30.072Z,17.76
2018-06-21T03:24:30.040Z,17.70
2018-06-21T03:25:30.011Z,17.60
2018-06-21T03:26:29.976Z,17.64
2018-06-21T03:27:29.943Z,17.60
2018-06-21T03:28:29.911Z,17.63
2018-06-21T03:29:29.877Z,17.52
2018-06-21T03:30:29.852Z,17.54
2018-06-21T03:31:29.809Z,17.68
2018-06-21T03:32:29.802Z,17.79
2018-06-21T03:33:29.751Z,18.01
2018-06-21T03:34:29.738Z,18.00
2018-06-21T03:35:29.686Z,18.05
2018-06-21T03:36:29.654Z,18.04
2018-06-21T03:37:29.648Z,18.04
2018-06-21T03:38:29.601Z,18.04
2018-06-21T03:39:29.566Z,18.20
2018-06-21T03:40:29.528Z,18.31
2018-06-21T03:41:29.496Z,18.23
2018-06-21T03:42:29.504Z,18.20
2018-06-21T03:43:29.432Z,18.11
2018-06-21T03:44:29.411Z,18.18
2018-06-21T03:45:29.364Z,18.11
2018-06-21T03:46:29.343Z,18.22
2018-06-21T03:47:29.312Z,18.38
2018-06-21T03:48:29.266Z,18.44
2018-06-21T03:49:29.237Z,18.45
2018-06-21T03:50:29.236Z,18.49
2018-06-21T03:51:29.172Z,18.60
2018-06-21T03:52:29.138Z,18.55
2018-06-21T03:53:29.116Z,18.49
2018-06-21T03:54:29.103Z,18.52
2018-06-21T03:55:29.058Z,18.52
2018-06-21T03:56:29.038Z,18.55
2018-06-21T03:57:28.992Z,18.73
2018-06-21T03:58:28.962Z,18.83
2018-06-21T03:59:28.913Z,18.93
2018-06-21T04:00:28.885Z,18.99
2018-06-21T04:01:28.851Z,19.16
2018-06-21T04:02:28.823Z,19.26
2018-06-21T04:03:28.801Z,19.34
2018-06-21T04:04:28.758Z,19.31
2018-06-21T04:05:28.918Z,19.41
2018-06-21T04:06:28.690Z,19.66
2018-06-21T04:07:28.662Z,19.40
2018-06-21T04:08:28.686Z,19.29
2018-06-21T04:09:28.597Z,19.22
2018-06-21T04:10:28.568Z,19.15
2018-06-21T04:11:28.550Z,19.24
2018-06-21T04:12:28.507Z,19.21
2018-06-21T04:13:28.468Z,19.15
2018-06-21T04:14:28.461Z,19.24
2018-06-21T04:15:28.459Z,19.37
2018-06-21T04:16:28.377Z,19.21
2018-06-21T04:17:28.359Z,19.22
2018-06-21T04:18:28.318Z,19.18
2018-06-21T04:19:28.293Z,19.18
2018-06-21T04:20:28.252Z,19.16
2018-06-21T04:21:28.217Z,19.29
2018-06-21T04:22:28.194Z,19.18
2018-06-21T04:23:28.182Z,19.18
2018-06-21T04:24:28.163Z,19.11
2018-06-21T04:25:28.094Z,18.93
2018-06-21T04:26:28.072Z,18.81
2018-06-21T04:27:28.031Z,18.88
2018-06-21T04:28:28.001Z,18.77
2018-06-21T04:29:27.964Z,18.80
2018-06-21T04:30:27.940Z,18.81
2018-06-21T04:31:27.908Z,18.80
2018-06-21T04:32:27.944Z,18.83
2018-06-21T04:33:27.860Z,18.89
2018-06-21T04:34:27.806Z,18.93
2018-06-21T04:35:27.791Z,19.07
2018-06-21T04:36:27.749Z,19.21
2018-06-21T04:37:27.744Z,19.15
2018-06-21T04:38:27.683Z,19.22
2018-06-21T04:39:27.652Z,19.14
2018-06-21T04:40:27.638Z,19.15
2018-06-21T04:41:27.602Z,19.16
2018-06-21T04:42:27.561Z,19.24
2018-06-21T04:43:27.550Z,19.21
2018-06-21T04:44:27.495Z,19.21
2018-06-21T04:45:27.460Z,19.29
2018-06-21T04:46:27.457Z,19.29
2018-06-21T04:47:27.404Z,19.24
2018-06-21T04:48:27.372Z,19.37
2018-06-21T04:49:27.338Z,19.29
2018-06-21T04:50:27.315Z,19.30
2018-06-21T04:51:27.288Z,19.31
2018-06-21T04:52:27.246Z,19.37
2018-06-21T04:53:27.249Z,19.48
2018-06-21T04:54:27.213Z,19.51
2018-06-21T04:55:27.151Z,19.58
2018-06-21T04:56:27.125Z,19.51
2018-06-21T04:57:27.082Z,19.64
2018-06-21T04:58:27.054Z,19.67
2018-06-21T04:59:27.038Z,19.69
2018-06-21T05:00:26.992Z,19.73
2018-06-21T05:01:26.970Z,19.76
2018-06-21T05:02:27.058Z,19.76
2018-06-21T05:03:27.599Z,19.88
2018-06-21T05:04:26.863Z,19.79
2018-06-21T05:05:26.848Z,19.81
2018-06-21T05:06:26.843Z,19.81
2018-06-21T05:07:26.779Z,19.99
2018-06-21T05:08:26.751Z,19.96
2018-06-21T05:09:26.722Z,20.09
2018-06-21T05:10:26.692Z,20.22
2018-06-21T05:11:26.652Z,20.21
2018-06-21T05:12:26.633Z,20.09
2018-06-21T05:13:26.584Z,20.04
2018-06-21T05:14:26.553Z,20.06
2018-06-21T05:15:26.527Z,19.99
2018-06-21T05:16:26.487Z,19.95
2018-06-21T05:17:26.465Z,19.96
2018-06-21T05:18:26.449Z,20.00
2018-06-21T05:19:26.411Z,19.92
2018-06-21T05:20:26.371Z,19.84
2018-06-21T05:21:26.341Z,19.77
2018-06-21T05:22:26.346Z,19.79
2018-06-21T05:23:26.287Z,19.71
2018-06-21T05:24:26.294Z,19.74
2018-06-21T05:25:26.225Z,19.81
2018-06-21T05:26:26.205Z,19.76
2018-06-21T05:27:26.170Z,19.74
2018-06-21T05:28:26.120Z,19.71
2018-06-21T05:29:26.090Z,19.62
2018-06-21T05:30:26.057Z,19.62
2018-06-21T05:31:26.037Z,19.62
2018-06-21T05:32:25.994Z,19.49
2018-06-21T05:33:25.965Z,19.39
2018-06-21T05:34:25.930Z,19.36
2018-06-21T05:35:25.902Z,19.29
2018-06-21T05:36:25.866Z,19.16
2018-06-21T05:37:25.933Z,19.21
2018-06-21T05:38:25.810Z,19.22
2018-06-21T05:39:25.792Z,19.22
2018-06-21T05:40:25.751Z,19.16
2018-06-21T05:41:25.721Z,19.09
2018-06-21T05:42:25.685Z,19.02
2018-06-21T05:43:25.653Z,18.90
2018-06-21T05:44:25.657Z,19.00
2018-06-21T05:45:25.590Z,18.74
2018-06-21T05:46:25.560Z,18.70
2018-06-21T05:47:25.529Z,18.60
2018-06-21T05:48:25.498Z,18.44
2018-06-21T05:49:25.466Z,18.43
2018-06-21T05:50:25.432Z,18.49
2018-06-21T05:51:25.400Z,18.41
2018-06-21T05:52:25.368Z,18.26
2018-06-21T05:53:25.334Z,18.19
2018-06-21T05:54:25.305Z,18.19
2018-06-21T05:55:25.299Z,18.18
2018-06-21T05:56:25.241Z,18.13
2018-06-21T05:57:25.216Z,18.22
2018-06-21T05:58:25.181Z,18.28
2018-06-21T05:59:25.150Z,18.29
2018-06-21T06:00:25.109Z,18.41
2018-06-21T06:01:25.086Z,18.31
2018-06-21T06:02:25.052Z,18.31
2018-06-21T06:03:25.022Z,18.31
2018-06-21T06:04:24.986Z,18.25
2018-06-21T06:05:24.955Z,18.18
2018-06-21T06:06:24.920Z,18.31
2018-06-21T06:07:24.894Z,18.20
2018-06-21T06:08:24.899Z,18.22
2018-06-21T06:09:24.825Z,18.20
2018-06-21T06:10:24.816Z,18.29
2018-06-21T06:11:24.794Z,18.22
2018-06-21T06:12:24.733Z,18.20
2018-06-21T06:13:24.696Z,18.16
2018-06-21T06:14:24.666Z,18.18
2018-06-21T06:15:24.635Z,18.07
2018-06-21T06:16:24.601Z,18.04
2018-06-21T06:17:24.572Z,18.10
2018-06-21T06:18:24.541Z,18.04
2018-06-21T06:19:24.506Z,18.05
2018-06-21T06:20:24.474Z,18.00
2018-06-21T06:21:24.442Z,17.90
2018-06-21T06:22:24.412Z,18.04
2018-06-21T06:23:24.382Z,18.04
2018-06-21T06:24:24.345Z,17.92
2018-06-21T06:25:24.340Z,17.90
2018-06-21T06:26:24.279Z,17.95
2018-06-21T06:27:24.268Z,17.95
2018-06-21T06:28:24.218Z,18.01
2018-06-21T06:29:24.185Z,17.97
2018-06-21T06:30:24.153Z,17.92
2018-06-21T06:31:24.121Z,18.00
2018-06-21T06:32:24.089Z,17.94
2018-06-21T06:33:24.577Z,17.87
2018-06-21T06:34:24.026Z,17.87
2018-06-21T06:35:24.014Z,17.94
2018-06-21T06:36:23.959Z,18.00
2018-06-21T06:37:23.927Z,18.05
2018-06-21T06:38:23.898Z,18.01
2018-06-21T06:39:23.862Z,18.03
2018-06-21T06:40:23.885Z,18.16
2018-06-21T06:41:23.801Z,18.05
2018-06-21T06:42:23.769Z,18.20
2018-06-21T06:43:23.737Z,18.23
2018-06-21T06:44:23.704Z,18.22
2018-06-21T06:45:23.674Z,18.26
2018-06-21T06:46:23.642Z,18.44
2018-06-21T06:47:23.610Z,18.53
2018-06-21T06:48:23.576Z,18.50
2018-06-21T06:49:23.546Z,18.52
2018-06-21T06:50:23.509Z,18.62
2018-06-21T06:51:23.486Z,18.62
2018-06-21T06:52:23.468Z,18.60
2018-06-21T06:53:23.417Z,18.63
2018-06-21T06:54:23.437Z,18.56
2018-06-21T06:55:23.355Z,18.63
2018-06-21T06:56:23.323Z,18.77
2018-06-21T06:57:23.291Z,18.74
2018-06-21T06:58:23.262Z,18.62
2018-06-21T06:59:23.231Z,18.59
2018-06-21T07:00:23.193Z,18.63
2018-06-21T07:01:23.159Z,18.70
2018-06-21T07:02:23.132Z,18.63
2018-06-21T07:03:23.101Z,18.73
2018-06-21T07:04:23.067Z,18.80
2018-06-21T07:05:23.039Z,18.80
2018-06-21T07:06:23.008Z,18.78
2018-06-21T07:07:22.968Z,18.77
2018-06-21T07:08:22.953Z,18.95
2018-06-21T07:09:22.919Z,18.83
2018-06-21T07:10:22.879Z,18.75
2018-06-21T07:11:22.847Z,18.80
2018-06-21T07:12:22.845Z,18.86
2018-06-21T07:13:22.780Z,18.78
2018-06-21T07:14:22.827Z,18.84
2018-06-21T07:15:22.722Z,18.83
2018-06-21T07:16:22.686Z,18.80
2018-06-21T07:17:22.656Z,18.74
2018-06-21T07:18:22.625Z,18.77
2018-06-21T07:19:22.594Z,18.78
2018-06-21T07:20:22.612Z,18.59
2018-06-21T07:21:22.527Z,18.66
2018-06-21T07:22:22.497Z,18.71
2018-06-21T07:23:22.465Z,18.63
2018-06-21T07:24:22.429Z,18.60
2018-06-21T07:25:22.401Z,18.78
2018-06-21T07:26:22.367Z,18.77
2018-06-21T07:27:22.340Z,18.75
2018-06-21T07:28:22.349Z,18.77
2018-06-21T07:29:22.276Z,18.78
2018-06-21T07:30:22.245Z,18.75
2018-06-21T07:31:22.213Z,18.92
2018-06-21T07:32:22.183Z,18.88
2018-06-21T07:33:22.149Z,18.75
2018-06-21T07:34:22.119Z,18.74
2018-06-21T07:35:22.092Z,18.77
2018-06-21T07:36:22.078Z,18.75
2018-06-21T07:37:22.024Z,18.80
2018-06-21T07:38:21.996Z,18.81
2018-06-21T07:39:21.959Z,18.83
2018-06-21T07:40:21.929Z,18.81
2018-06-21T07:41:21.896Z,18.83
2018-06-21T07:42:21.861Z,18.92
2018-06-21T07:43:21.827Z,18.95
2018-06-21T07:44:21.803Z,19.02
2018-06-21T07:45:21.772Z,19.08
2018-06-21T07:46:21.738Z,19.07
2018-06-21T07:47:21.706Z,19.15
2018-06-21T07:48:21.678Z,19.16
2018-06-21T07:49:21.644Z,19.22
2018-06-21T07:50:21.612Z,19.37
2018-06-21T07:51:21.575Z,19.33
2018-06-21T07:52:21.571Z,19.40
2018-06-21T07:53:21.517Z,19.33
2018-06-21T07:54:21.487Z,19.31
2018-06-21T07:55:21.455Z,19.36
2018-06-21T07:56:21.426Z,19.34
2018-06-21T07:57:21.394Z,19.31
2018-06-21T07:58:21.368Z,19.30
2018-06-21T07:59:21.331Z,19.29
2018-06-21T08:00:21.315Z,19.26
2018-06-21T08:01:21.265Z,19.19
2018-06-21T08:02:21.237Z,19.31
2018-06-21T08:03:21.200Z,19.37
2018-06-21T08:04:21.176Z,19.33
2018-06-21T08:05:21.145Z,19.40
2018-06-21T08:06:21.110Z,19.34
2018-06-21T08:07:21.076Z,19.40
2018-06-21T08:08:21.072Z,19.37
2018-06-21T08:09:21.012Z,19.48
2018-06-21T08:10:20.983Z,19.37
2018-06-21T08:11:20.956Z,19.34
2018-06-21T08:12:20.920Z,19.37
2018-06-21T08:13:20.901Z,19.36
2018-06-21T08:14:20.858Z,19.31
2018-06-21T08:15:20.820Z,19.49
2018-06-21T08:16:20.798Z,19.40
2018-06-21T08:17:20.764Z,19.59
2018-06-21T08:18:20.734Z,19.62
2018-06-21T08:19:20.698Z,19.62
2018-06-21T08:20:20.676Z,19.63
2018-06-21T08:21:20.650Z,19.62
2018-06-21T08:22:20.609Z,19.74
2018-06-21T08:23:20.643Z,19.76
2018-06-21T08:24:20.579Z,19.85
2018-06-21T08:25:20.516Z,19.77
2018-06-21T08:26:20.486Z,19.86
2018-06-21T08:27:20.453Z,19.94
2018-06-21T08:28:20.424Z,19.91
2018-06-21T08:29:20.390Z,19.89
2018-06-21T08:30:20.362Z,19.91
2018-06-21T08:31:20.329Z,19.85
2018-06-21T08:32:20.305Z,19.85
2018-06-21T08:33:20.271Z,19.91
2018-06-21T08:34:20.238Z,19.94
2018-06-21T08:35:20.206Z,20.25
2018-06-21T08:36:20.178Z,20.24
2018-06-21T08:37:20.146Z,20.29
2018-06-21T08:38:20.118Z,20.19
2018-06-21T08:39:20.087Z,20.37
2018-06-21T08:40:20.055Z,20.31
2018-06-21T08:41:20.026Z,20.37
2018-06-21T08:42:19.997Z,20.36
2018-06-21T08:43:19.966Z,20.22
2018-06-21T08:44:19.933Z,20.10
2018-06-21T08:45:19.899Z,20.07
2018-06-21T08:46:19.885Z,20.13
2018-06-21T08:47:19.843Z,19.99
2018-06-21T08:48:19.812Z,20.11
2018-06-21T08:49:19.780Z,20.39
2018-06-21T08:50:19.751Z,20.36
2018-06-21T08:51:19.741Z,20.69
2018-06-21T08:52:19.692Z,20.84
2018-06-21T08:53:20.000Z,21.05
2018-06-21T08:54:20.173Z,21.11
2018-06-21T08:55:19.602Z,21.21
2018-06-21T08:56:19.566Z,21.33
2018-06-21T08:57:19.569Z,21.52
2018-06-21T08:58:19.557Z,21.73
2018-06-21T08:59:19.483Z,21.80
2018-06-21T09:00:19.455Z,21.96
2018-06-21T09:01:19.427Z,22.08
2018-06-21T09:02:19.398Z,21.95
2018-06-21T09:03:19.367Z,21.95
2018-06-21T09:04:19.339Z,22.07
2018-06-21T09:05:19.315Z,22.06
2018-06-21T09:06:19.280Z,21.98
2018-06-21T09:07:19.258Z,22.14
2018-06-21T09:08:19.221Z,22.17
2018-06-21T09:09:19.193Z,22.45
2018-06-21T09:10:19.160Z,22.75
2018-06-21T09:11:19.158Z,22.69
2018-06-21T09:12:19.118Z,22.93
2018-06-21T09:13:19.078Z,22.75
2018-06-21T09:14:19.054Z,22.66
2018-06-21T09:15:19.061Z,22.22
2018-06-21T09:16:19.004Z,21.96
2018-06-21T09:17:18.979Z,21.70
2018-06-21T09:18:18.934Z,21.75
2018-06-21T09:19:18.910Z,21.91
2018-06-21T09:20:18.882Z,22.35
2018-06-21T09:21:18.858Z,22.66
2018-06-21T09:22:18.825Z,22.69
2018-06-21T09:23:18.795Z,22.98
2018-06-21T09:24:18.769Z,23.51
2018-06-21T09:25:18.742Z,23.87
2018-06-21T09:26:18.716Z,24.35
2018-06-21T09:27:18.687Z,24.18
2018-06-21T09:28:18.658Z,24.10
2018-06-21T09:29:18.630Z,24.01
2018-06-21T09:30:18.606Z,24.08
2018-06-21T09:31:18.576Z,24.18
2018-06-21T09:32:18.550Z,23.68
2018-06-21T09:33:18.561Z,23.13
2018-06-21T09:34:18.496Z,22.65
2018-06-21T09:35:18.471Z,22.80
2018-06-21T09:36:18.444Z,22.66
2018-06-21T09:37:18.412Z,22.30
2018-06-21T09:38:18.388Z,22.14
2018-06-21T09:39:18.362Z,21.98
2018-06-21T09:40:18.333Z,21.69
2018-06-21T09:41:18.357Z,21.61
2018-06-21T09:42:18.275Z,21.37
2018-06-21T09:43:18.247Z,21.51
2018-06-21T09:44:18.220Z,21.48
2018-06-21T09:45:18.192Z,21.43
2018-06-21T09:46:18.161Z,22.00
2018-06-21T09:47:18.133Z,22.57
2018-06-21T09:48:18.132Z,23.15
2018-06-21T09:49:18.077Z,23.48
2018-06-21T09:50:18.047Z,24.03
2018-06-21T09:51:18.024Z,24.20
2018-06-21T09:52:17.993Z,24.30
2018-06-21T09:53:17.963Z,24.23
2018-06-21T09:54:17.938Z,23.84
2018-06-21T09:55:18.757Z,23.92
2018-06-21T09:56:17.880Z,24.35
2018-06-21T09:57:17.853Z,24.42
2018-06-21T09:58:17.843Z,24.58
2018-06-21T09:59:17.799Z,25.08
2018-06-21T10:00:17.775Z,24.99
2018-06-21T10:01:17.745Z,25.32
2018-06-21T10:02:17.718Z,25.31
2018-06-21T10:03:17.695Z,25.73
2018-06-21T10:04:17.665Z,25.23
2018-06-21T10:05:17.639Z,25.16
2018-06-21T10:06:17.615Z,25.25
2018-06-21T10:07:17.586Z,25.31
2018-06-21T10:08:17.561Z,25.32
2018-06-21T10:09:17.562Z,25.26
2018-06-21T10:10:17.511Z,25.16
2018-06-21T10:11:17.489Z,24.39
2018-06-21T10:12:17.450Z,23.68
2018-06-21T10:13:17.431Z,23.32
2018-06-21T10:14:17.399Z,23.76
2018-06-21T10:15:17.376Z,23.91
2018-06-21T10:16:17.373Z,24.35
2018-06-21T10:17:17.320Z,23.84
2018-06-21T10:18:17.291Z,23.87
2018-06-21T10:19:17.267Z,24.14
2018-06-21T10:20:17.240Z,23.32
2018-06-21T10:21:17.210Z,22.96
2018-06-21T10:22:17.199Z,23.21
2018-06-21T10:23:17.161Z,22.87
2018-06-21T10:24:17.130Z,23.25
2018-06-21T10:25:17.110Z,23.96
2018-06-21T10:26:17.079Z,24.61
2018-06-21T10:27:17.054Z,24.92
2018-06-21T10:28:17.028Z,25.17
2018-06-21T10:29:16.999Z,25.26
2018-06-21T10:30:16.970Z,25.41
2018-06-21T10:31:16.944Z,25.53
2018-06-21T10:32:16.916Z,25.65
2018-06-21T10:33:16.891Z,25.68
2018-06-21T10:34:16.862Z,26.40
2018-06-21T10:35:16.865Z,26.60
2018-06-21T10:36:16.814Z,26.65
2018-06-21T10:37:16.813Z,26.88
2018-06-21T10:38:16.762Z,26.70
2018-06-21T10:39:16.736Z,26.36
2018-06-21T10:40:16.710Z,26.58
2018-06-21T10:41:16.682Z,26.97
2018-06-21T10:42:16.661Z,26.96
2018-06-21T10:43:16.633Z,27.37
2018-06-21T10:44:16.637Z,27.45
2018-06-21T10:45:16.582Z,26.85
2018-06-21T10:46:16.559Z,26.59
2018-06-21T10:47:16.534Z,26.99
2018-06-21T10:48:16.500Z,27.21
2018-06-21T10:49:16.481Z,27.47
2018-06-21T10:50:16.456Z,27.47
2018-06-21T10:51:16.430Z,27.93
2018-06-21T10:52:16.407Z,27.51
2018-06-21T10:53:16.378Z,26.92
2018-06-21T10:54:16.356Z,26.40
2018-06-21T10:55:16.330Z,25.55
2018-06-21T10:56:16.304Z,25.60
2018-06-21T10:57:16.283Z,26.19
2018-06-21T10:58:16.257Z,26.71
2018-06-21T10:59:16.227Z,26.52
2018-06-21T11:00:16.216Z,26.70
2018-06-21T11:01:16.177Z,27.32
2018-06-21T11:02:16.150Z,27.70
2018-06-21T11:03:16.140Z,28.00
2018-06-21T11:04:16.098Z,27.71
2018-06-21T11:05:16.082Z,27.67
2018-06-21T11:06:16.075Z,27.96
2018-06-21T11:07:16.023Z,28.10
2018-06-21T11:08:15.996Z,28.19
2018-06-21T11:09:15.991Z,28.20
2018-06-21T11:10:15.946Z,28.01
2018-06-21T11:11:15.918Z,28.52
2018-06-21T11:12:15.925Z,28.60
2018-06-21T11:13:15.869Z,28.37
2018-06-21T11:14:15.848Z,27.82
2018-06-21T11:15:15.817Z,27.78
2018-06-21T11:16:15.819Z,26.96
2018-06-21T11:17:15.771Z,26.41
2018-06-21T11:18:15.741Z,27.20
2018-06-21T11:19:15.721Z,27.44
2018-06-21T11:20:15.696Z,26.60
2018-06-21T11:21:15.672Z,26.90
2018-06-21T11:22:15.645Z,26.99
2018-06-21T11:23:15.621Z,27.59
2018-06-21T11:24:15.597Z,27.75
2018-06-21T11:25:15.584Z,27.80
2018-06-21T11:26:15.544Z,28.33
2018-06-21T11:27:15.519Z,28.20
2018-06-21T11:28:15.496Z,28.15
2018-06-21T11:29:15.502Z,27.20
2018-06-21T11:30:15.473Z,26.13
2018-06-21T11:31:15.418Z,25.51
2018-06-21T11:32:15.393Z,26.40
2018-06-21T11:33:15.370Z,26.62
2018-06-21T11:34:15.345Z,27.40
2018-06-21T11:35:15.336Z,28.00
2018-06-21T11:36:15.292Z,28.22
2018-06-21T11:37:15.267Z,28.32
2018-06-21T11:38:15.317Z,27.85
2018-06-21T11:39:15.279Z,27.36
2018-06-21T11:40:15.191Z,26.66
2018-06-21T11:41:15.176Z,26.60
2018-06-21T11:42:15.135Z,25.50
2018-06-21T11:43:15.134Z,25.48
2018-06-21T11:44:15.094Z,26.43
2018-06-21T11:45:15.064Z,27.30
2018-06-21T11:46:15.035Z,27.82
2018-06-21T11:47:15.013Z,28.32
2018-06-21T11:48:15.017Z,28.62
2018-06-21T11:49:14.981Z,28.39
2018-06-21T11:50:14.936Z,28.98
2018-06-21T11:51:14.909Z,28.84
2018-06-21T11:52:14.923Z,28.91
2018-06-21T11:53:14.860Z,28.98
2018-06-21T11:54:14.856Z,29.12
2018-06-21T11:55:14.818Z,28.85
2018-06-21T11:56:14.794Z,29.41
2018-06-21T11:57:14.777Z,29.16
2018-06-21T11:58:14.743Z,29.53
2018-06-21T11:59:14.711Z,29.63
2018-06-21T12:00:14.692Z,29.81
2018-06-21T12:01:14.660Z,29.26
2018-06-21T12:02:14.639Z,29.81
2018-06-21T12:03:14.616Z,30.10
2018-06-21T12:04:14.588Z,30.10
2018-06-21T12:05:14.565Z,29.07
2018-06-21T12:06:14.541Z,27.86
2018-06-21T12:07:14.526Z,28.05
2018-06-21T12:08:14.528Z,27.20
2018-06-21T12:09:14.467Z,27.36
2018-06-21T12:10:14.435Z,27.67
2018-06-21T12:11:14.418Z,28.07
2018-06-21T12:12:14.390Z,28.27
2018-06-21T12:13:14.368Z,28.98
2018-06-21T12:14:14.341Z,28.67
2018-06-21T12:15:14.322Z,28.19
2018-06-21T12:16:14.284Z,27.67
2018-06-21T12:17:14.292Z,26.78
2018-06-21T12:18:14.246Z,26.52
2018-06-21T12:19:14.216Z,26.51
2018-06-21T12:20:14.190Z,27.20
2018-06-21T12:21:14.167Z,27.30
2018-06-21T12:22:14.138Z,27.86
2018-06-21T12:23:14.110Z,28.41
2018-06-21T12:24:14.090Z,28.14
2018-06-21T12:25:14.060Z,28.63
2018-06-21T12:26:14.191Z,28.75
2018-06-21T12:27:14.012Z,28.82
2018-06-21T12:28:13.989Z,28.91
2018-06-21T12:29:13.960Z,29.04
2018-06-21T12:30:13.935Z,29.42
2018-06-21T12:31:13.911Z,29.69
2018-06-21T12:32:13.886Z,29.84
2018-06-21T12:33:13.861Z,29.87
2018-06-21T12:34:13.836Z,29.88
2018-06-21T12:35:13.811Z,29.13
2018-06-21T12:36:13.796Z,28.67
2018-06-21T12:37:13.796Z,27.58
2018-06-21T12:38:13.732Z,27.52
2018-06-21T12:39:13.713Z,27.00
2018-06-21T12:40:13.687Z,26.81
2018-06-21T12:41:13.663Z,27.68
2018-06-21T12:42:13.639Z,28.01
2018-06-21T12:43:13.632Z,28.51
2018-06-21T12:44:13.586Z,28.82
2018-06-21T12:45:13.570Z,28.42
2018-06-21T12:46:13.534Z,28.26
2018-06-21T12:47:13.513Z,28.42
2018-06-21T12:48:13.487Z,28.69
2018-06-21T12:49:13.461Z,28.60
2018-06-21T12:50:13.435Z,28.37
2018-06-21T12:51:13.410Z,29.12
2018-06-21T12:52:13.399Z,29.98